sensor_id;sensor_type;location;lat;lon;timestamp;temperature;humidity
64499;SHT31;51087;55.718;21.122;2022-07-18T00:00:01;23.11;59.46
64499;SHT31;51087;55.718;21.122;2022-07-18T00:02:26;23.11;59.54
64499;SHT31;51087;55.718;21.122;2022-07-18T00:04:52;23.14;59.54
64499;SHT31;51087;55.718;21.122;2022-07-18T00:07:18;23.12;59.58
64499;SHT31;51087;55.718;21.122;2022-07-18T00:09:43;23.12;59.65
64499;SHT31;51087;55.718;21.122;2022-07-18T00:12:10;23.11;59.73
64499;SHT31;51087;55.718;21.122;2022-07-18T00:14:36;23.12;59.73
64499;SHT31;51087;55.718;21.122;2022-07-18T00:17:04;23.12;59.82
64499;SHT31;51087;55.718;21.122;2022-07-18T00:19:30;23.14;59.85
64499;SHT31;51087;55.718;21.122;2022-07-18T00:21:55;23.11;59.89
64499;SHT31;51087;55.718;21.122;2022-07-18T00:24:21;23.12;59.91
64499;SHT31;51087;55.718;21.122;2022-07-18T00:26:46;23.12;59.95
64499;SHT31;51087;55.718;21.122;2022-07-18T00:29:12;23.09;60.02
64499;SHT31;51087;55.718;21.122;2022-07-18T00:31:37;23.11;60.07
64499;SHT31;51087;55.718;21.122;2022-07-18T00:34:03;23.11;60.11
64499;SHT31;51087;55.718;21.122;2022-07-18T00:36:30;23.11;60.16
64499;SHT31;51087;55.718;21.122;2022-07-18T00:38:56;23.11;60.18
64499;SHT31;51087;55.718;21.122;2022-07-18T00:41:22;23.11;60.24
64499;SHT31;51087;55.718;21.122;2022-07-18T00:43:47;23.09;60.28
64499;SHT31;51087;55.718;21.122;2022-07-18T00:46:13;23.11;60.21
64499;SHT31;51087;55.718;21.122;2022-07-18T00:48:40;23.09;60.33
64499;SHT31;51087;55.718;21.122;2022-07-18T00:51:06;23.12;60.43
64499;SHT31;51087;55.718;21.122;2022-07-18T00:53:32;23.11;60.35
64499;SHT31;51087;55.718;21.122;2022-07-18T00:55:58;23.09;60.38
64499;SHT31;51087;55.718;21.122;2022-07-18T00:58:24;23.09;60.43
64499;SHT31;51087;55.718;21.122;2022-07-18T01:00:49;23.08;60.46
64499;SHT31;51087;55.718;21.122;2022-07-18T01:03:33;23.11;60.55
64499;SHT31;51087;55.718;21.122;2022-07-18T01:05:59;23.09;60.58
64499;SHT31;51087;55.718;21.122;2022-07-18T01:08:24;23.08;60.65
64499;SHT31;51087;55.718;21.122;2022-07-18T01:10:50;23.11;60.64
64499;SHT31;51087;55.718;21.122;2022-07-18T01:13:17;23.11;60.72
64499;SHT31;51087;55.718;21.122;2022-07-18T01:15:42;23.09;60.69
64499;SHT31;51087;55.718;21.122;2022-07-18T01:18:08;23.08;60.82
64499;SHT31;51087;55.718;21.122;2022-07-18T01:20:34;23.09;60.88
64499;SHT31;51087;55.718;21.122;2022-07-18T01:22:59;23.09;60.88
64499;SHT31;51087;55.718;21.122;2022-07-18T01:25:25;23.12;60.90
64499;SHT31;51087;55.718;21.122;2022-07-18T01:27:51;23.09;60.95
64499;SHT31;51087;55.718;21.122;2022-07-18T01:30:17;23.09;60.99
64499;SHT31;51087;55.718;21.122;2022-07-18T01:32:42;23.09;61.06
64499;SHT31;51087;55.718;21.122;2022-07-18T01:35:08;23.12;61.09
64499;SHT31;51087;55.718;21.122;2022-07-18T01:37:34;23.11;61.18
64499;SHT31;51087;55.718;21.122;2022-07-18T01:39:59;23.08;61.20
64499;SHT31;51087;55.718;21.122;2022-07-18T01:42:25;23.09;61.21
64499;SHT31;51087;55.718;21.122;2022-07-18T01:44:50;23.09;61.27
64499;SHT31;51087;55.718;21.122;2022-07-18T01:47:16;23.08;61.32
64499;SHT31;51087;55.718;21.122;2022-07-18T01:49:42;23.09;61.18
64499;SHT31;51087;55.718;21.122;2022-07-18T01:52:09;23.09;60.94
64499;SHT31;51087;55.718;21.122;2022-07-18T01:54:36;23.08;60.83
64499;SHT31;51087;55.718;21.122;2022-07-18T01:57:03;23.09;60.85
64499;SHT31;51087;55.718;21.122;2022-07-18T01:59:29;23.08;60.84
64499;SHT31;51087;55.718;21.122;2022-07-18T02:01:55;23.08;60.85
64499;SHT31;51087;55.718;21.122;2022-07-18T02:04:21;23.09;60.92
64499;SHT31;51087;55.718;21.122;2022-07-18T02:07:06;23.11;60.91
64499;SHT31;51087;55.718;21.122;2022-07-18T02:09:32;23.09;60.96
64499;SHT31;51087;55.718;21.122;2022-07-18T02:11:57;23.11;60.94
64499;SHT31;51087;55.718;21.122;2022-07-18T02:14:22;23.09;60.97
64499;SHT31;51087;55.718;21.122;2022-07-18T02:16:48;23.11;60.97
64499;SHT31;51087;55.718;21.122;2022-07-18T02:19:13;23.11;60.99
64499;SHT31;51087;55.718;21.122;2022-07-18T02:21:39;23.12;61.02
64499;SHT31;51087;55.718;21.122;2022-07-18T02:24:04;23.14;61.06
64499;SHT31;51087;55.718;21.122;2022-07-18T02:26:30;23.14;61.11
64499;SHT31;51087;55.718;21.122;2022-07-18T02:28:55;23.11;61.14
64499;SHT31;51087;55.718;21.122;2022-07-18T02:31:21;23.11;61.18
64499;SHT31;51087;55.718;21.122;2022-07-18T02:33:48;23.14;61.19
64499;SHT31;51087;55.718;21.122;2022-07-18T02:36:14;23.15;61.24
64499;SHT31;51087;55.718;21.122;2022-07-18T02:38:39;23.14;61.24
64499;SHT31;51087;55.718;21.122;2022-07-18T02:41:05;23.12;61.35
64499;SHT31;51087;55.718;21.122;2022-07-18T02:43:30;23.14;61.35
64499;SHT31;51087;55.718;21.122;2022-07-18T02:45:56;23.14;61.42
64499;SHT31;51087;55.718;21.122;2022-07-18T02:48:21;23.12;61.41
64499;SHT31;51087;55.718;21.122;2022-07-18T02:50:47;23.15;61.55
64499;SHT31;51087;55.718;21.122;2022-07-18T02:53:12;23.14;61.54
64499;SHT31;51087;55.718;21.122;2022-07-18T02:55:38;23.15;61.55
64499;SHT31;51087;55.718;21.122;2022-07-18T02:58:03;23.16;61.60
64499;SHT31;51087;55.718;21.122;2022-07-18T03:00:29;23.16;61.66
64499;SHT31;51087;55.718;21.122;2022-07-18T03:02:54;23.18;61.71
64499;SHT31;51087;55.718;21.122;2022-07-18T03:05:19;23.16;61.72
64499;SHT31;51087;55.718;21.122;2022-07-18T03:07:45;23.18;61.77
64499;SHT31;51087;55.718;21.122;2022-07-18T03:10:11;23.18;61.79
64499;SHT31;51087;55.718;21.122;2022-07-18T03:12:36;23.18;61.81
64499;SHT31;51087;55.718;21.122;2022-07-18T03:15:02;23.19;61.82
64499;SHT31;51087;55.718;21.122;2022-07-18T03:17:28;23.20;61.92
64499;SHT31;51087;55.718;21.122;2022-07-18T03:19:53;23.19;61.93
64499;SHT31;51087;55.718;21.122;2022-07-18T03:22:19;23.23;61.91
64499;SHT31;51087;55.718;21.122;2022-07-18T03:24:44;23.23;61.92
64499;SHT31;51087;55.718;21.122;2022-07-18T03:27:10;23.22;61.96
64499;SHT31;51087;55.718;21.122;2022-07-18T03:29:35;23.26;61.96
64499;SHT31;51087;55.718;21.122;2022-07-18T03:32:00;23.26;61.97
64499;SHT31;51087;55.718;21.122;2022-07-18T03:34:26;23.29;62.04
64499;SHT31;51087;55.718;21.122;2022-07-18T03:36:51;23.27;62.01
64499;SHT31;51087;55.718;21.122;2022-07-18T03:39:17;23.29;61.98
64499;SHT31;51087;55.718;21.122;2022-07-18T03:41:42;23.29;61.96
64499;SHT31;51087;55.718;21.122;2022-07-18T03:44:08;23.33;61.97
64499;SHT31;51087;55.718;21.122;2022-07-18T03:46:34;23.33;61.95
64499;SHT31;51087;55.718;21.122;2022-07-18T03:48:59;23.35;62.01
64499;SHT31;51087;55.718;21.122;2022-07-18T03:51:26;23.35;61.96
64499;SHT31;51087;55.718;21.122;2022-07-18T03:53:52;23.36;61.95
64499;SHT31;51087;55.718;21.122;2022-07-18T03:56:17;23.38;61.97
64499;SHT31;51087;55.718;21.122;2022-07-18T03:58:43;23.36;62.01
64499;SHT31;51087;55.718;21.122;2022-07-18T04:01:08;23.38;62.01
64499;SHT31;51087;55.718;21.122;2022-07-18T04:03:34;23.39;62.02
64499;SHT31;51087;55.718;21.122;2022-07-18T04:05:59;23.39;62.00
64499;SHT31;51087;55.718;21.122;2022-07-18T04:08:25;23.39;61.99
64499;SHT31;51087;55.718;21.122;2022-07-18T04:10:50;23.39;62.08
64499;SHT31;51087;55.718;21.122;2022-07-18T04:13:16;23.38;62.10
64499;SHT31;51087;55.718;21.122;2022-07-18T04:15:41;23.36;62.19
64499;SHT31;51087;55.718;21.122;2022-07-18T04:18:08;23.39;62.21
64499;SHT31;51087;55.718;21.122;2022-07-18T04:20:34;23.36;62.27
64499;SHT31;51087;55.718;21.122;2022-07-18T04:23:02;23.36;62.30
64499;SHT31;51087;55.718;21.122;2022-07-18T04:25:29;23.35;62.34
64499;SHT31;51087;55.718;21.122;2022-07-18T04:27:58;23.36;62.34
64499;SHT31;51087;55.718;21.122;2022-07-18T04:30:25;23.36;62.39
64499;SHT31;51087;55.718;21.122;2022-07-18T04:32:51;23.39;62.39
64499;SHT31;51087;55.718;21.122;2022-07-18T04:35:17;23.38;62.45
64499;SHT31;51087;55.718;21.122;2022-07-18T04:37:42;23.39;62.30
64499;SHT31;51087;55.718;21.122;2022-07-18T04:40:09;23.38;62.78
64499;SHT31;51087;55.718;21.122;2022-07-18T04:42:35;23.41;63.18
64499;SHT31;51087;55.718;21.122;2022-07-18T04:45:01;23.42;63.63
64499;SHT31;51087;55.718;21.122;2022-07-18T04:47:28;23.43;63.74
64499;SHT31;51087;55.718;21.122;2022-07-18T04:49:54;23.45;63.87
64499;SHT31;51087;55.718;21.122;2022-07-18T04:52:20;23.42;63.94
64499;SHT31;51087;55.718;21.122;2022-07-18T04:54:45;23.42;64.03
64499;SHT31;51087;55.718;21.122;2022-07-18T04:57:11;23.43;64.04
64499;SHT31;51087;55.718;21.122;2022-07-18T04:59:42;23.43;64.09
64499;SHT31;51087;55.718;21.122;2022-07-18T05:02:09;23.43;64.10
64499;SHT31;51087;55.718;21.122;2022-07-18T05:04:35;23.45;64.12
64499;SHT31;51087;55.718;21.122;2022-07-18T05:07:01;23.46;64.24
64499;SHT31;51087;55.718;21.122;2022-07-18T05:09:27;23.45;64.23
64499;SHT31;51087;55.718;21.122;2022-07-18T05:11:52;23.47;63.99
64499;SHT31;51087;55.718;21.122;2022-07-18T05:14:17;23.47;64.17
64499;SHT31;51087;55.718;21.122;2022-07-18T05:16:43;23.46;64.20
64499;SHT31;51087;55.718;21.122;2022-07-18T05:19:08;23.47;64.46
64499;SHT31;51087;55.718;21.122;2022-07-18T05:21:34;23.47;64.53
64499;SHT31;51087;55.718;21.122;2022-07-18T05:23:59;23.46;64.47
64499;SHT31;51087;55.718;21.122;2022-07-18T05:26:25;23.49;64.45
64499;SHT31;51087;55.718;21.122;2022-07-18T05:28:50;23.47;64.39
64499;SHT31;51087;55.718;21.122;2022-07-18T05:31:16;23.50;64.51
64499;SHT31;51087;55.718;21.122;2022-07-18T05:33:41;23.47;64.53
64499;SHT31;51087;55.718;21.122;2022-07-18T05:36:08;23.47;64.53
64499;SHT31;51087;55.718;21.122;2022-07-18T05:38:33;23.49;64.66
64499;SHT31;51087;55.718;21.122;2022-07-18T05:40:59;23.49;64.66
64499;SHT31;51087;55.718;21.122;2022-07-18T05:43:24;23.47;64.61
64499;SHT31;51087;55.718;21.122;2022-07-18T05:45:49;23.46;64.67
64499;SHT31;51087;55.718;21.122;2022-07-18T05:48:15;23.47;64.63
64499;SHT31;51087;55.718;21.122;2022-07-18T05:50:40;23.49;64.63
64499;SHT31;51087;55.718;21.122;2022-07-18T05:53:06;23.49;64.61
64499;SHT31;51087;55.718;21.122;2022-07-18T05:55:31;23.52;64.60
64499;SHT31;51087;55.718;21.122;2022-07-18T05:57:57;23.53;64.59
64499;SHT31;51087;55.718;21.122;2022-07-18T06:00:22;23.52;64.64
64499;SHT31;51087;55.718;21.122;2022-07-18T06:02:49;23.56;64.66
64499;SHT31;51087;55.718;21.122;2022-07-18T06:05:15;23.57;64.76
64499;SHT31;51087;55.718;21.122;2022-07-18T06:07:41;23.56;64.79
64499;SHT31;51087;55.718;21.122;2022-07-18T06:10:07;23.59;64.81
64499;SHT31;51087;55.718;21.122;2022-07-18T06:12:32;23.56;64.87
64499;SHT31;51087;55.718;21.122;2022-07-18T06:14:59;23.59;64.77
64499;SHT31;51087;55.718;21.122;2022-07-18T06:17:25;23.59;64.78
64499;SHT31;51087;55.718;21.122;2022-07-18T06:19:50;23.57;64.71
64499;SHT31;51087;55.718;21.122;2022-07-18T06:22:16;23.61;64.87
64499;SHT31;51087;55.718;21.122;2022-07-18T06:24:41;23.64;64.88
64499;SHT31;51087;55.718;21.122;2022-07-18T06:27:07;23.61;64.83
64499;SHT31;51087;55.718;21.122;2022-07-18T06:29:32;23.63;64.80
64499;SHT31;51087;55.718;21.122;2022-07-18T06:31:58;23.63;64.83
64499;SHT31;51087;55.718;21.122;2022-07-18T06:34:23;23.61;64.77
64499;SHT31;51087;55.718;21.122;2022-07-18T06:36:49;23.63;64.79
64499;SHT31;51087;55.718;21.122;2022-07-18T06:39:14;23.64;64.77
64499;SHT31;51087;55.718;21.122;2022-07-18T06:41:42;23.69;64.81
64499;SHT31;51087;55.718;21.122;2022-07-18T06:44:07;23.67;64.73
64499;SHT31;51087;55.718;21.122;2022-07-18T06:46:33;23.67;64.66
64499;SHT31;51087;55.718;21.122;2022-07-18T06:48:59;23.67;64.63
64499;SHT31;51087;55.718;21.122;2022-07-18T06:51:24;23.67;64.63
64499;SHT31;51087;55.718;21.122;2022-07-18T06:53:50;23.66;64.59
64499;SHT31;51087;55.718;21.122;2022-07-18T06:56:17;23.69;64.52
64499;SHT31;51087;55.718;21.122;2022-07-18T06:58:42;23.66;64.62
64499;SHT31;51087;55.718;21.122;2022-07-18T07:01:14;23.69;64.61
64499;SHT31;51087;55.718;21.122;2022-07-18T07:03:40;23.69;64.49
64499;SHT31;51087;55.718;21.122;2022-07-18T07:06:06;23.71;64.50
64499;SHT31;51087;55.718;21.122;2022-07-18T07:08:31;23.70;64.46
64499;SHT31;51087;55.718;21.122;2022-07-18T07:10:56;23.73;64.50
64499;SHT31;51087;55.718;21.122;2022-07-18T07:13:22;23.73;64.45
64499;SHT31;51087;55.718;21.122;2022-07-18T07:15:47;23.74;64.41
64499;SHT31;51087;55.718;21.122;2022-07-18T07:18:13;23.73;64.33
64499;SHT31;51087;55.718;21.122;2022-07-18T07:20:38;23.77;64.17
64499;SHT31;51087;55.718;21.122;2022-07-18T07:23:04;23.80;64.18
64499;SHT31;51087;55.718;21.122;2022-07-18T07:25:32;23.80;64.13
64499;SHT31;51087;55.718;21.122;2022-07-18T07:27:58;23.81;64.07
64499;SHT31;51087;55.718;21.122;2022-07-18T07:30:23;23.81;63.96
64499;SHT31;51087;55.718;21.122;2022-07-18T07:32:49;23.82;64.02
64499;SHT31;51087;55.718;21.122;2022-07-18T07:35:16;23.82;63.88
64499;SHT31;51087;55.718;21.122;2022-07-18T07:37:45;23.82;63.87
64499;SHT31;51087;55.718;21.122;2022-07-18T07:40:11;23.84;63.78
64499;SHT31;51087;55.718;21.122;2022-07-18T07:42:37;23.87;63.67
64499;SHT31;51087;55.718;21.122;2022-07-18T07:45:03;23.87;63.64
64499;SHT31;51087;55.718;21.122;2022-07-18T07:47:29;23.85;63.69
64499;SHT31;51087;55.718;21.122;2022-07-18T07:49:56;23.85;63.59
64499;SHT31;51087;55.718;21.122;2022-07-18T07:52:22;23.84;63.59
64499;SHT31;51087;55.718;21.122;2022-07-18T07:54:52;23.84;63.57
64499;SHT31;51087;55.718;21.122;2022-07-18T07:57:17;23.85;63.40
64499;SHT31;51087;55.718;21.122;2022-07-18T07:59:43;23.85;63.52
64499;SHT31;51087;55.718;21.122;2022-07-18T08:02:08;23.84;63.54
64499;SHT31;51087;55.718;21.122;2022-07-18T08:04:34;23.84;63.51
64499;SHT31;51087;55.718;21.122;2022-07-18T08:07:00;23.85;63.63
64499;SHT31;51087;55.718;21.122;2022-07-18T08:09:26;23.90;63.55
64499;SHT31;51087;55.718;21.122;2022-07-18T08:11:51;23.94;63.52
64499;SHT31;51087;55.718;21.122;2022-07-18T08:14:17;23.97;63.25
64499;SHT31;51087;55.718;21.122;2022-07-18T08:16:42;23.97;63.33
64499;SHT31;51087;55.718;21.122;2022-07-18T08:19:08;24.00;63.15
64499;SHT31;51087;55.718;21.122;2022-07-18T08:21:33;24.00;63.17
64499;SHT31;51087;55.718;21.122;2022-07-18T08:23:59;24.01;63.15
64499;SHT31;51087;55.718;21.122;2022-07-18T08:26:24;24.02;63.19
64499;SHT31;51087;55.718;21.122;2022-07-18T08:28:51;24.05;63.12
64499;SHT31;51087;55.718;21.122;2022-07-18T08:31:16;24.04;63.21
64499;SHT31;51087;55.718;21.122;2022-07-18T08:33:44;24.07;63.08
64499;SHT31;51087;55.718;21.122;2022-07-18T08:36:09;24.08;63.13
64499;SHT31;51087;55.718;21.122;2022-07-18T08:38:35;24.09;63.08
64499;SHT31;51087;55.718;21.122;2022-07-18T08:41:01;24.12;63.12
64499;SHT31;51087;55.718;21.122;2022-07-18T08:43:26;24.12;63.07
64499;SHT31;51087;55.718;21.122;2022-07-18T08:45:59;24.15;63.13
64499;SHT31;51087;55.718;21.122;2022-07-18T08:48:26;24.12;63.18
64499;SHT31;51087;55.718;21.122;2022-07-18T08:50:52;24.12;62.94
64499;SHT31;51087;55.718;21.122;2022-07-18T08:53:18;24.12;62.97
64499;SHT31;51087;55.718;21.122;2022-07-18T08:55:44;24.07;63.01
64499;SHT31;51087;55.718;21.122;2022-07-18T08:58:10;24.07;62.82
64499;SHT31;51087;55.718;21.122;2022-07-18T09:00:37;24.08;62.92
64499;SHT31;51087;55.718;21.122;2022-07-18T09:03:03;24.09;62.90
64499;SHT31;51087;55.718;21.122;2022-07-18T09:05:30;24.11;62.96
64499;SHT31;51087;55.718;21.122;2022-07-18T09:08:12;24.09;63.22
64499;SHT31;51087;55.718;21.122;2022-07-18T09:10:59;24.11;63.24
64499;SHT31;51087;55.718;21.122;2022-07-18T09:13:37;24.18;63.39
64499;SHT31;51087;55.718;21.122;2022-07-18T09:16:13;24.22;63.71
64499;SHT31;51087;55.718;21.122;2022-07-18T09:18:40;24.28;63.93
64499;SHT31;51087;55.718;21.122;2022-07-18T09:21:11;24.30;63.87
64499;SHT31;51087;55.718;21.122;2022-07-18T09:23:42;24.30;63.85
64499;SHT31;51087;55.718;21.122;2022-07-18T09:26:10;24.29;64.01
64499;SHT31;51087;55.718;21.122;2022-07-18T09:28:50;24.28;64.21
64499;SHT31;51087;55.718;21.122;2022-07-18T09:31:21;24.32;64.28
64499;SHT31;51087;55.718;21.122;2022-07-18T09:33:59;24.29;64.18
64499;SHT31;51087;55.718;21.122;2022-07-18T09:36:25;24.26;64.50
64499;SHT31;51087;55.718;21.122;2022-07-18T09:38:51;24.24;64.62
64499;SHT31;51087;55.718;21.122;2022-07-18T09:41:22;24.21;64.63
64499;SHT31;51087;55.718;21.122;2022-07-18T09:43:48;24.19;64.73
64499;SHT31;51087;55.718;21.122;2022-07-18T09:46:13;24.18;64.74
64499;SHT31;51087;55.718;21.122;2022-07-18T09:48:39;24.17;64.71
64499;SHT31;51087;55.718;21.122;2022-07-18T09:51:06;24.15;64.68
64499;SHT31;51087;55.718;21.122;2022-07-18T09:56:07;24.09;64.40
64499;SHT31;51087;55.718;21.122;2022-07-18T09:58:49;24.08;64.49
64499;SHT31;51087;55.718;21.122;2022-07-18T10:01:16;24.07;64.63
64499;SHT31;51087;55.718;21.122;2022-07-18T10:03:41;24.08;64.49
64499;SHT31;51087;55.718;21.122;2022-07-18T10:06:07;24.15;64.22
64499;SHT31;51087;55.718;21.122;2022-07-18T10:08:34;24.24;64.07
64499;SHT31;51087;55.718;21.122;2022-07-18T10:11:02;24.33;63.73
64499;SHT31;51087;55.718;21.122;2022-07-18T10:13:29;24.36;63.33
64499;SHT31;51087;55.718;21.122;2022-07-18T10:15:56;24.43;63.30
64499;SHT31;51087;55.718;21.122;2022-07-18T10:18:23;24.45;63.16
64499;SHT31;51087;55.718;21.122;2022-07-18T10:23:39;24.48;63.07
64499;SHT31;51087;55.718;21.122;2022-07-18T10:31:22;24.49;62.97
64499;SHT31;51087;55.718;21.122;2022-07-18T10:33:48;24.48;62.84
64499;SHT31;51087;55.718;21.122;2022-07-18T10:36:16;24.53;62.66
64499;SHT31;51087;55.718;21.122;2022-07-18T10:39:19;24.56;62.63
64499;SHT31;51087;55.718;21.122;2022-07-18T10:50:02;24.64;62.42
64499;SHT31;51087;55.718;21.122;2022-07-18T11:00:36;24.74;62.04
64499;SHT31;51087;55.718;21.122;2022-07-18T11:03:11;24.81;61.92
64499;SHT31;51087;55.718;21.122;2022-07-18T11:05:49;24.86;61.58
64499;SHT31;51087;55.718;21.122;2022-07-18T11:08:16;24.87;61.63
64499;SHT31;51087;55.718;21.122;2022-07-18T11:23:49;25.03;60.84
64499;SHT31;51087;55.718;21.122;2022-07-18T11:26:16;25.04;60.94
64499;SHT31;51087;55.718;21.122;2022-07-18T11:28:42;25.08;60.86
64499;SHT31;51087;55.718;21.122;2022-07-18T11:31:10;25.08;60.83
64499;SHT31;51087;55.718;21.122;2022-07-18T11:33:38;25.12;60.81
64499;SHT31;51087;55.718;21.122;2022-07-18T11:36:08;25.10;60.69
64499;SHT31;51087;55.718;21.122;2022-07-18T11:38:36;25.04;60.89
64499;SHT31;51087;55.718;21.122;2022-07-18T11:41:03;25.01;60.92
64499;SHT31;51087;55.718;21.122;2022-07-18T11:43:28;24.93;61.16
64499;SHT31;51087;55.718;21.122;2022-07-18T11:46:09;24.90;61.29
64499;SHT31;51087;55.718;21.122;2022-07-18T11:48:36;24.84;61.22
64499;SHT31;51087;55.718;21.122;2022-07-18T11:51:02;24.86;61.36
64499;SHT31;51087;55.718;21.122;2022-07-18T11:53:33;24.79;61.41
64499;SHT31;51087;55.718;21.122;2022-07-18T11:56:03;24.74;61.59
64499;SHT31;51087;55.718;21.122;2022-07-18T11:58:38;24.73;61.69
64499;SHT31;51087;55.718;21.122;2022-07-18T12:01:04;24.72;61.64
64499;SHT31;51087;55.718;21.122;2022-07-18T12:03:30;24.67;61.64
64499;SHT31;51087;55.718;21.122;2022-07-18T12:05:55;24.67;61.70
64499;SHT31;51087;55.718;21.122;2022-07-18T12:08:30;24.67;61.72
64499;SHT31;51087;55.718;21.122;2022-07-18T12:11:07;24.67;61.59
64499;SHT31;51087;55.718;21.122;2022-07-18T12:16:08;24.74;61.34
64499;SHT31;51087;55.718;21.122;2022-07-18T12:18:33;24.79;61.19
64499;SHT31;51087;55.718;21.122;2022-07-18T12:21:09;24.80;61.11
64499;SHT31;51087;55.718;21.122;2022-07-18T12:23:35;24.77;61.10
64499;SHT31;51087;55.718;21.122;2022-07-18T12:26:00;24.77;61.23
64499;SHT31;51087;55.718;21.122;2022-07-18T12:28:28;24.70;61.27
64499;SHT31;51087;55.718;21.122;2022-07-18T12:30:54;24.64;61.47
64499;SHT31;51087;55.718;21.122;2022-07-18T12:33:20;24.59;61.65
64499;SHT31;51087;55.718;21.122;2022-07-18T12:35:57;24.57;61.77
64499;SHT31;51087;55.718;21.122;2022-07-18T12:38:22;24.57;61.75
64499;SHT31;51087;55.718;21.122;2022-07-18T12:43:37;24.90;61.08
64499;SHT31;51087;55.718;21.122;2022-07-18T12:46:06;25.03;60.54
64499;SHT31;51087;55.718;21.122;2022-07-18T12:48:32;25.21;60.20
64499;SHT31;51087;55.718;21.122;2022-07-18T12:51:09;25.34;59.65
64499;SHT31;51087;55.718;21.122;2022-07-18T12:53:37;25.46;59.29
64499;SHT31;51087;55.718;21.122;2022-07-18T12:56:04;25.53;59.12
64499;SHT31;51087;55.718;21.122;2022-07-18T12:58:29;25.59;58.91
64499;SHT31;51087;55.718;21.122;2022-07-18T13:00:55;25.56;58.94
64499;SHT31;51087;55.718;21.122;2022-07-18T13:03:21;25.58;58.76
64499;SHT31;51087;55.718;21.122;2022-07-18T13:05:47;25.50;58.94
64499;SHT31;51087;55.718;21.122;2022-07-18T13:08:12;25.39;59.10
64499;SHT31;51087;55.718;21.122;2022-07-18T13:10:38;25.29;59.28
64499;SHT31;51087;55.718;21.122;2022-07-18T13:13:05;25.28;59.51
64499;SHT31;51087;55.718;21.122;2022-07-18T13:15:31;25.17;59.74
64499;SHT31;51087;55.718;21.122;2022-07-18T13:17:57;25.04;60.03
64499;SHT31;51087;55.718;21.122;2022-07-18T13:20:23;24.94;60.35
64499;SHT31;51087;55.718;21.122;2022-07-18T13:22:48;24.87;60.58
64499;SHT31;51087;55.718;21.122;2022-07-18T13:25:14;24.83;60.74
64499;SHT31;51087;55.718;21.122;2022-07-18T13:27:40;24.81;60.78
64499;SHT31;51087;55.718;21.122;2022-07-18T13:30:07;24.79;60.87
64499;SHT31;51087;55.718;21.122;2022-07-18T13:32:34;24.76;60.91
64499;SHT31;51087;55.718;21.122;2022-07-18T13:34:59;24.74;60.93
64499;SHT31;51087;55.718;21.122;2022-07-18T13:37:25;24.72;60.96
64499;SHT31;51087;55.718;21.122;2022-07-18T13:39:50;24.69;61.04
64499;SHT31;51087;55.718;21.122;2022-07-18T13:42:16;24.66;61.07
64499;SHT31;51087;55.718;21.122;2022-07-18T13:44:42;24.64;61.19
64499;SHT31;51087;55.718;21.122;2022-07-18T13:47:10;24.66;61.24
64499;SHT31;51087;55.718;21.122;2022-07-18T13:49:36;24.62;61.24
64499;SHT31;51087;55.718;21.122;2022-07-18T13:52:02;24.60;61.32
64499;SHT31;51087;55.718;21.122;2022-07-18T13:54:27;24.57;61.36
64499;SHT31;51087;55.718;21.122;2022-07-18T13:56:53;24.59;61.35
64499;SHT31;51087;55.718;21.122;2022-07-18T13:59:18;24.56;61.45
64499;SHT31;51087;55.718;21.122;2022-07-18T14:01:43;24.55;61.30
64499;SHT31;51087;55.718;21.122;2022-07-18T14:04:09;24.53;61.25
64499;SHT31;51087;55.718;21.122;2022-07-18T14:06:34;24.49;61.25
64499;SHT31;51087;55.718;21.122;2022-07-18T14:09:04;24.48;61.47
64499;SHT31;51087;55.718;21.122;2022-07-18T14:11:29;24.46;61.48
64499;SHT31;51087;55.718;21.122;2022-07-18T14:13:57;24.45;61.43
64499;SHT31;51087;55.718;21.122;2022-07-18T14:16:23;24.43;61.40
64499;SHT31;51087;55.718;21.122;2022-07-18T14:18:48;24.46;61.46
64499;SHT31;51087;55.718;21.122;2022-07-18T14:21:14;24.42;61.47
64499;SHT31;51087;55.718;21.122;2022-07-18T14:23:39;24.42;61.71
64499;SHT31;51087;55.718;21.122;2022-07-18T14:26:05;24.40;61.81
64499;SHT31;51087;55.718;21.122;2022-07-18T14:28:30;24.36;61.55
64499;SHT31;51087;55.718;21.122;2022-07-18T14:30:56;24.36;61.55
64499;SHT31;51087;55.718;21.122;2022-07-18T14:33:21;24.39;61.54
64499;SHT31;51087;55.718;21.122;2022-07-18T14:35:47;24.40;61.67
64499;SHT31;51087;55.718;21.122;2022-07-18T14:38:12;24.37;61.83
64499;SHT31;51087;55.718;21.122;2022-07-18T14:40:38;24.37;61.88
64499;SHT31;51087;55.718;21.122;2022-07-18T14:43:03;24.32;62.08
64499;SHT31;51087;55.718;21.122;2022-07-18T14:45:29;24.29;62.19
64499;SHT31;51087;55.718;21.122;2022-07-18T14:47:54;24.29;62.17
64499;SHT31;51087;55.718;21.122;2022-07-18T14:50:19;24.26;62.17
64499;SHT31;51087;55.718;21.122;2022-07-18T14:52:45;24.25;62.30
64499;SHT31;51087;55.718;21.122;2022-07-18T14:55:11;24.25;62.22
64499;SHT31;51087;55.718;21.122;2022-07-18T14:57:37;24.21;62.19
64499;SHT31;51087;55.718;21.122;2022-07-18T15:00:05;24.21;62.35
64499;SHT31;51087;55.718;21.122;2022-07-18T15:02:31;24.19;62.28
64499;SHT31;51087;55.718;21.122;2022-07-18T15:04:57;24.19;62.49
64499;SHT31;51087;55.718;21.122;2022-07-18T15:07:22;24.18;62.57
64499;SHT31;51087;55.718;21.122;2022-07-18T15:09:48;24.17;62.79
64499;SHT31;51087;55.718;21.122;2022-07-18T15:12:13;24.14;62.89
64499;SHT31;51087;55.718;21.122;2022-07-18T15:14:40;24.15;62.99
64499;SHT31;51087;55.718;21.122;2022-07-18T15:17:06;24.12;63.08
64499;SHT31;51087;55.718;21.122;2022-07-18T15:19:31;24.14;63.27
64499;SHT31;51087;55.718;21.122;2022-07-18T15:21:57;24.11;63.37
64499;SHT31;51087;55.718;21.122;2022-07-18T15:24:22;24.09;63.32
64499;SHT31;51087;55.718;21.122;2022-07-18T15:26:47;24.11;63.41
64499;SHT31;51087;55.718;21.122;2022-07-18T15:29:13;24.12;63.46
64499;SHT31;51087;55.718;21.122;2022-07-18T15:31:40;24.09;63.58
64499;SHT31;51087;55.718;21.122;2022-07-18T15:34:05;24.09;63.59
64499;SHT31;51087;55.718;21.122;2022-07-18T15:36:31;24.07;63.64
64499;SHT31;51087;55.718;21.122;2022-07-18T15:38:56;24.05;63.74
64499;SHT31;51087;55.718;21.122;2022-07-18T15:41:21;24.04;63.83
64499;SHT31;51087;55.718;21.122;2022-07-18T15:43:48;24.02;64.00
64499;SHT31;51087;55.718;21.122;2022-07-18T15:46:13;24.01;64.10
64499;SHT31;51087;55.718;21.122;2022-07-18T15:48:43;24.05;64.05
64499;SHT31;51087;55.718;21.122;2022-07-18T15:51:09;24.07;63.98
64499;SHT31;51087;55.718;21.122;2022-07-18T15:53:35;24.08;63.88
64499;SHT31;51087;55.718;21.122;2022-07-18T15:56:00;24.11;63.70